Time;durP1;ratioP1;P1;durP2;ratioP2;P2;SDS_P1;SDS_P2;PMS_P1;PMS_P2;Temp;Humidity;BMP_temperature;BMP_pressure;BME280_temperature;BME280_humidity;BME280_pressure;Samples;Min_cycle;Max_cycle;Signal;HPM_P1;HPM_P2
2021/08/03 00:00:45;;;;;;;6.73;4.00;;;;;;;16.83;80.85;100315.88;1428361;91;22396;-82
2021/08/03 00:03:11;;;;;;;6.60;4.87;;;;;;;16.78;81.49;100313.46;1421621;91;22508;-82
2021/08/03 00:05:41;;;;;;;4.57;3.47;;;;;;;16.76;81.08;100314.97;1430817;91;21569;-82
2021/08/03 00:08:26;;;;;;;5.85;4.17;;;;;;;16.77;81.07;100313.12;1422208;91;21613;-82
2021/08/03 00:10:53;;;;;;;6.17;3.73;;;;;;;16.76;81.00;100309.62;1409448;93;21459;-82
2021/08/03 00:13:21;;;;;;;5.57;3.67;;;;;;;16.72;81.77;100311.52;1405831;93;22468;-82
2021/08/03 00:15:50;;;;;;;7.30;3.20;;;;;;;16.70;81.36;100308.51;1407832;93;21507;-82
2021/08/03 00:18:17;;;;;;;7.10;4.20;;;;;;;16.64;82.44;100306.60;1408005;93;21493;-82
2021/08/03 00:20:44;;;;;;;16.57;5.80;;;;;;;16.60;82.96;100308.02;1411436;93;21500;-85
2021/08/03 00:23:11;;;;;;;5.53;4.53;;;;;;;16.57;82.97;100307.06;1415935;93;22029;-85
2021/08/03 00:25:37;;;;;;;11.73;4.20;;;;;;;16.58;81.80;100310.55;1415284;93;21696;-84
2021/08/03 00:28:06;;;;;;;10.00;3.90;;;;;;;16.55;81.58;100305.59;1405851;93;21521;-84
2021/08/03 00:30:33;;;;;;;6.83;3.87;;;;;;;16.55;81.76;100312.27;1407259;93;21578;-85
2021/08/03 00:33:00;;;;;;;4.97;3.97;;;;;;;16.55;81.74;100307.75;1395361;93;21463;-85
2021/08/03 00:35:27;;;;;;;4.63;3.77;;;;;;;16.57;81.67;100313.73;1406708;93;21493;-85
2021/08/03 00:37:53;;;;;;;4.53;3.70;;;;;;;16.58;81.52;100305.20;1408941;93;22439;-85
2021/08/03 00:40:21;;;;;;;3.90;3.50;;;;;;;16.53;83.35;100304.43;1408406;93;21545;-84
2021/08/03 00:42:47;;;;;;;4.73;3.97;;;;;;;16.48;83.59;100306.83;1408092;93;21434;-85
2021/08/03 00:45:13;;;;;;;4.93;3.97;;;;;;;16.45;83.56;100302.69;1404910;93;21448;-85
2021/08/03 00:47:39;;;;;;;8.83;4.63;;;;;;;16.42;83.69;100308.93;1410075;93;21397;-84
2021/08/03 00:50:06;;;;;;;7.10;3.87;;;;;;;16.39;84.47;100301.30;1417947;93;21567;-84
2021/08/03 00:52:33;;;;;;;6.37;4.10;;;;;;;16.34;84.50;100301.87;1409420;93;21640;-85
2021/08/03 00:54:59;;;;;;;7.90;3.60;;;;;;;16.31;84.55;100305.41;1398791;93;21486;-85
2021/08/03 00:57:26;;;;;;;7.50;4.37;;;;;;;16.28;84.38;100305.78;1412900;93;21619;-85
2021/08/03 00:59:53;;;;;;;11.03;4.40;;;;;;;16.23;84.20;100301.84;1406626;93;21463;-85
2021/08/03 01:02:19;;;;;;;4.50;3.33;;;;;;;16.20;84.18;100300.06;1406683;93;21560;-85
2021/08/03 01:04:46;;;;;;;6.70;3.43;;;;;;;16.17;85.04;100295.07;1406544;93;21574;-85
2021/08/03 01:07:29;;;;;;;6.43;4.03;;;;;;;16.15;85.02;100302.47;1407795;93;21500;-85
2021/08/03 01:10:18;;;;;;;9.27;3.97;;;;;;;16.10;85.47;100297.67;1379744;93;22546;-86
2021/08/03 01:13:10;;;;;;;5.07;3.20;;;;;;;16.07;85.56;100298.05;1410774;93;21970;-86
2021/08/03 01:15:51;;;;;;;7.33;3.67;;;;;;;16.07;86.16;100298.56;1408456;93;21614;-86
2021/08/03 01:18:38;;;;;;;5.87;3.80;;;;;;;16.05;85.65;100297.91;1413168;93;21508;-86
2021/08/03 01:21:22;;;;;;;5.93;4.87;;;;;;;16.03;85.53;100298.11;1405812;93;22353;-86
2021/08/03 01:24:18;;;;;;;6.60;4.27;;;;;;;15.96;86.04;100301.19;1408212;93;21782;-87
2021/08/03 01:27:17;;;;;;;6.80;4.33;;;;;;;15.91;86.06;100300.91;1401463;93;21839;-86
2021/08/03 01:29:46;;;;;;;13.87;5.00;;;;;;;15.84;85.72;100298.67;1404753;93;21508;-86
2021/08/03 01:32:16;;;;;;;7.67;3.67;;;;;;;15.81;85.79;100297.20;1408688;93;21441;-87
2021/08/03 01:34:46;;;;;;;5.97;3.87;;;;;;;15.81;85.67;100295.87;1405775;93;22514;-86
2021/08/03 01:37:19;;;;;;;6.08;3.30;;;;;;;15.83;85.22;100289.84;1402980;93;21604;-86
2021/08/03 01:40:08;;;;;;;5.97;4.07;;;;;;;15.84;86.05;100295.50;1416108;93;21537;-86
2021/08/03 01:42:39;;;;;;;4.43;3.93;;;;;;;15.85;85.37;100300.32;1416993;93;21640;-86
2021/08/03 01:45:08;;;;;;;4.92;4.25;;;;;;;15.88;85.16;100303.95;1406158;91;22432;-87
2021/08/03 01:47:34;;;;;;;6.93;5.07;;;;;;;15.85;86.06;100304.33;1404098;93;22440;-87
2021/08/03 01:50:02;;;;;;;7.40;4.60;;;;;;;15.82;86.63;100306.03;1408161;93;21634;-86
2021/08/03 01:52:32;;;;;;;10.23;4.47;;;;;;;15.79;87.51;100315.23;1409931;93;22336;-86
2021/08/03 01:54:59;;;;;;;8.57;3.80;;;;;;;15.75;86.55;100309.95;1403553;93;21659;-86
2021/08/03 01:57:27;;;;;;;4.60;3.53;;;;;;;15.73;85.88;100307.45;1414324;93;22539;-86
2021/08/03 01:59:54;;;;;;;4.47;3.27;;;;;;;15.68;86.55;100309.87;1407360;93;21507;-87
2021/08/03 02:02:21;;;;;;;6.90;3.67;;;;;;;15.64;86.00;100313.86;1401990;93;21703;-87
2021/08/03 02:04:48;;;;;;;6.00;3.50;;;;;;;15.60;86.78;100320.59;1413364;93;21485;-86
2021/08/03 02:07:17;;;;;;;3.37;2.77;;;;;;;15.59;86.07;100314.91;1410080;93;21618;-86
2021/08/03 02:09:45;;;;;;;5.23;2.20;;;;;;;15.56;85.81;100314.80;1412309;93;21478;-86
2021/08/03 02:12:12;;;;;;;3.33;2.70;;;;;;;15.50;86.25;100324.02;1405929;93;21537;-86
2021/08/03 02:14:45;;;;;;;3.17;2.07;;;;;;;15.45;86.24;100321.91;1416980;93;21493;-86
2021/08/03 02:17:09;;;;;;;4.33;3.07;;;;;;;15.42;85.85;100326.28;1410001;93;21605;-86
2021/08/03 02:19:35;;;;;;;4.30;3.57;;;;;;;15.36;84.99;100330.98;1414186;93;21560;-87
2021/08/03 02:22:02;;;;;;;5.10;3.47;;;;;;;15.26;84.78;100342.42;1400711;93;21500;-86
2021/08/03 02:24:28;;;;;;;5.80;3.60;;;;;;;15.18;85.24;100343.30;1405009;93;21644;-86
2021/08/03 02:26:54;;;;;;;7.13;3.73;;;;;;;15.15;86.40;100345.00;1405648;93;22535;-87
2021/08/03 02:29:20;;;;;;;4.13;3.17;;;;;;;15.11;86.45;100349.87;1408515;93;21536;-87
2021/08/03 02:31:52;;;;;;;10.23;3.60;;;;;;;15.08;87.29;100342.74;1409481;93;21463;-86
2021/08/03 02:34:30;;;;;;;9.70;3.93;;;;;;;15.08;87.50;100348.07;1407410;93;21905;-86
2021/08/03 02:37:06;;;;;;;3.93;3.37;;;;;;;15.06;87.92;100346.08;1401263;93;21602;-87
2021/08/03 02:39:35;;;;;;;4.13;3.23;;;;;;;15.05;87.94;100345.26;1400945;93;21596;-86
2021/08/03 02:42:02;;;;;;;5.23;3.50;;;;;;;15.04;87.97;100352.08;1409328;93;21514;-87
2021/08/03 02:44:31;;;;;;;4.80;3.93;;;;;;;15.07;88.14;100350.39;1408972;93;21540;-87
2021/08/03 02:46:58;;;;;;;8.97;4.27;;;;;;;15.09;87.54;100353.20;1408180;93;21710;-86
2021/08/03 02:49:46;;;;;;;5.97;4.40;;;;;;;15.11;88.11;100351.71;1412523;93;21500;-87
2021/08/03 02:52:06;;;;;;;6.27;4.73;;;;;;;15.11;88.28;100353.05;1410060;93;21648;-86
2021/08/03 02:54:37;;;;;;;9.20;4.93;;;;;;;15.13;87.83;100352.34;1400785;93;21585;-86
2021/08/03 02:57:08;;;;;;;12.50;4.97;;;;;;;15.15;88.44;100353.50;1402544;93;21688;-86
2021/08/03 02:59:37;;;;;;;;;;;;;;;15.16;88.36;100353.31;1387419;93;21833;-86
2021/08/03 03:02:09;;;;;;;5.60;4.73;;;;;;;15.15;88.03;100351.66;1405953;93;20506;-86
2021/08/03 03:04:40;;;;;;;6.33;5.27;;;;;;;15.17;87.25;100357.66;1413324;93;22540;-86
2021/08/03 03:07:15;;;;;;;8.80;5.13;;;;;;;15.16;88.20;100357.31;1408356;93;21515;-86
2021/08/03 03:09:43;;;;;;;10.57;5.27;;;;;;;15.16;88.85;100363.15;1404440;93;21463;-86
2021/08/03 03:12:11;;;;;;;10.37;5.37;;;;;;;15.19;88.61;100365.45;1409865;93;21471;-87
2021/08/03 03:14:41;;;;;;;4.73;4.23;;;;;;;15.20;88.57;100365.80;1402428;93;21665;-87
2021/08/03 03:17:10;;;;;;;8.88;5.67;;;;;;;15.24;88.33;100367.09;1404505;93;21843;-86
2021/08/03 03:19:39;;;;;;;7.03;5.23;;;;;;;15.27;87.84;100372.88;1410869;93;22441;-86
2021/08/03 03:22:08;;;;;;;9.13;5.23;;;;;;;15.29;87.69;100371.39;1404583;93;21492;-87
2021/08/03 03:24:37;;;;;;;7.30;5.20;;;;;;;15.31;87.30;100379.53;1405648;93;22387;-86
2021/08/03 03:27:05;;;;;;;9.50;5.57;;;;;;;15.32;87.12;100381.69;1414609;93;21486;-87
2021/08/03 03:29:34;;;;;;;6.70;5.30;;;;;;;15.31;87.78;100382.20;1405300;93;21738;-87
2021/08/03 03:32:01;;;;;;;10.63;6.30;;;;;;;15.32;87.76;100387.84;1405244;93;21470;-86
2021/08/03 03:34:30;;;;;;;9.30;6.10;;;;;;;15.38;87.75;100388.14;1404650;93;21470;-86
2021/08/03 03:36:57;;;;;;;8.17;5.80;;;;;;;15.42;87.45;100386.77;1412930;93;22381;-87
2021/08/03 03:39:24;;;;;;;7.70;4.80;;;;;;;15.44;87.71;100385.58;1409941;93;21499;-87
2021/08/03 03:41:55;;;;;;;9.60;5.07;;;;;;;15.45;87.65;100387.73;1414244;93;21597;-86
2021/08/03 03:44:22;;;;;;;6.00;5.40;;;;;;;15.46;87.27;100390.74;1409380;93;21648;-87
2021/08/03 03:46:59;;;;;;;15.97;6.60;;;;;;;15.46;86.84;100384.90;1409136;93;21522;-86
2021/08/03 03:49:34;;;;;;;8.00;5.47;;;;;;;15.45;86.70;100387.73;1406255;93;21589;-86
2021/08/03 03:52:02;;;;;;;11.60;5.60;;;;;;;15.45;86.56;100390.40;1402819;93;21679;-87
2021/08/03 03:54:33;;;;;;;6.37;4.87;;;;;;;15.49;86.46;100397.05;1405588;93;21426;-87
2021/08/03 03:57:05;;;;;;;6.93;4.83;;;;;;;15.52;86.28;100399.35;1404626;93;21516;-86
2021/08/03 03:59:32;;;;;;;5.43;4.93;;;;;;;15.55;86.25;100403.81;1396169;93;21530;-87
2021/08/03 04:02:06;;;;;;;6.43;4.27;;;;;;;15.60;85.98;100411.29;1412287;93;22467;-87
2021/08/03 04:04:35;;;;;;;7.57;5.03;;;;;;;15.63;85.81;100410.92;1417044;93;21471;-87
2021/08/03 04:07:02;;;;;;;5.53;4.97;;;;;;;15.63;85.72;100414.92;1414426;93;21514;-87
2021/08/03 04:09:28;;;;;;;6.97;5.30;;;;;;;15.64;85.38;100418.42;1402782;93;21493;-87
2021/08/03 04:11:54;;;;;;;6.80;5.23;;;;;;;15.64;85.16;100417.91;1406655;93;21553;-86
2021/08/03 04:14:25;;;;;;;5.73;4.63;;;;;;;15.66;85.22;100422.56;1403936;93;21500;-87
2021/08/03 04:16:53;;;;;;;6.33;5.03;;;;;;;15.73;85.29;100435.52;1411896;93;21537;-87
2021/08/03 04:19:20;;;;;;;4.50;4.10;;;;;;;15.77;85.13;100432.84;1406515;93;22388;-86
2021/08/03 04:21:46;;;;;;;7.70;4.83;;;;;;;15.78;84.91;100425.14;1403352;93;21567;-86
2021/08/03 04:24:18;;;;;;;5.60;4.47;;;;;;;15.83;84.69;100423.79;1407725;93;22440;-86
2021/08/03 04:26:46;;;;;;;11.67;4.23;;;;;;;15.87;84.93;100419.73;1408774;93;21730;-87
2021/08/03 04:29:12;;;;;;;11.37;4.50;;;;;;;15.94;84.80;100421.98;1408691;93;21870;-86
2021/08/03 04:31:38;;;;;;;6.83;4.80;;;;;;;15.97;84.71;100421.64;1408242;93;22075;-87
2021/08/03 04:34:05;;;;;;;9.80;4.43;;;;;;;15.99;84.81;100424.94;1418605;93;21426;-86
2021/08/03 04:36:31;;;;;;;7.43;5.53;;;;;;;16.04;84.87;100419.06;1400126;93;21470;-87
2021/08/03 04:38:57;;;;;;;4.90;3.97;;;;;;;16.08;85.12;100423.83;1407482;93;21591;-86
2021/08/03 04:41:23;;;;;;;9.60;4.50;;;;;;;16.12;85.65;100419.80;1402683;93;22306;-86
2021/08/03 04:43:49;;;;;;;4.97;3.80;;;;;;;16.20;85.30;100426.90;1409583;93;21575;-86
2021/08/03 04:46:16;;;;;;;6.80;4.40;;;;;;;16.33;85.06;100430.24;1413443;93;21435;-86
2021/08/03 04:48:42;;;;;;;6.27;4.17;;;;;;;16.44;84.91;100427.11;1397650;93;21419;-86
2021/08/03 04:51:08;;;;;;;11.80;4.40;;;;;;;16.55;84.69;100431.98;1405423;93;21545;-86
2021/08/03 04:53:34;;;;;;;13.33;4.40;;;;;;;16.69;84.74;100430.30;1404447;93;22409;-86
2021/08/03 04:56:00;;;;;;;11.00;5.57;;;;;;;16.79;84.44;100430.02;1409697;93;21985;-87
2021/08/03 04:58:26;;;;;;;13.37;5.57;;;;;;;16.89;83.98;100431.39;1417093;93;22373;-86
2021/08/03 05:00:52;;;;;;;9.67;4.07;;;;;;;17.02;83.90;100435.21;1407738;93;21485;-86
2021/08/03 05:03:19;;;;;;;5.33;4.37;;;;;;;17.12;83.79;100435.23;1401774;93;21463;-86
2021/08/03 05:05:45;;;;;;;6.97;4.30;;;;;;;17.23;83.64;100433.87;1412918;93;21530;-86
2021/08/03 05:08:11;;;;;;;9.40;4.53;;;;;;;17.35;83.40;100422.19;1411079;93;22425;-86
2021/08/03 05:10:39;;;;;;;5.63;4.90;;;;;;;17.47;83.18;100428.66;1406833;93;21433;-86
2021/08/03 05:13:05;;;;;;;7.53;4.30;;;;;;;17.60;83.01;100428.75;1404183;93;21560;-86
2021/08/03 05:15:31;;;;;;;7.83;3.77;;;;;;;17.71;82.56;100427.92;1408027;93;21524;-86
2021/08/03 05:17:58;;;;;;;11.20;4.27;;;;;;;17.82;82.30;100434.12;1402435;93;21574;-86
2021/08/03 05:20:24;;;;;;;8.53;4.90;;;;;;;17.95;82.05;100434.23;1405551;93;21762;-86
2021/08/03 05:22:50;;;;;;;11.63;4.50;;;;;;;18.07;81.63;100435.84;1404956;93;21455;-86
2021/08/03 05:25:17;;;;;;;3.97;3.53;;;;;;;18.20;81.25;100438.58;1404599;93;21968;-86
2021/08/03 05:27:44;;;;;;;5.20;3.80;;;;;;;18.29;80.32;100440.59;1414067;93;21433;-86
2021/08/03 05:30:11;;;;;;;5.00;3.90;;;;;;;18.36;79.82;100441.47;1407919;93;21537;-86
2021/08/03 05:32:37;;;;;;;3.97;3.57;;;;;;;18.40;79.00;100441.38;1406030;93;21471;-86
2021/08/03 05:35:06;;;;;;;4.47;3.47;;;;;;;18.44;78.47;100434.61;1406492;93;21618;-86
2021/08/03 05:37:32;;;;;;;3.73;3.30;;;;;;;18.45;77.80;100438.93;1408409;93;21560;-86
2021/08/03 05:40:02;;;;;;;5.60;3.40;;;;;;;18.57;78.35;100434.34;1410995;93;21464;-86
2021/08/03 05:42:26;;;;;;;8.50;3.13;;;;;;;18.71;78.41;100442.75;1405411;93;22618;-85
2021/08/03 05:44:53;;;;;;;5.60;3.37;;;;;;;18.82;77.79;100438.19;1404459;93;21538;-86
2021/08/03 05:47:19;;;;;;;5.37;2.85;;;;;;;18.93;77.13;100438.09;1405403;93;21514;-86
2021/08/03 05:49:47;;;;;;;5.67;3.27;;;;;;;18.87;74.21;100442.93;1404762;93;21434;-85
2021/08/03 05:52:13;;;;;;;6.03;3.33;;;;;;;18.99;75.56;100435.12;1410009;93;22497;-86
2021/08/03 05:54:39;;;;;;;4.60;2.60;;;;;;;19.08;76.01;100433.93;1402317;93;21464;-85
2021/08/03 05:57:05;;;;;;;3.20;2.90;;;;;;;19.16;74.28;100437.73;1402469;93;21396;-85
2021/08/03 05:59:32;;;;;;;3.80;3.50;;;;;;;19.29;75.45;100437.77;1410243;93;22329;-85
2021/08/03 06:01:58;;;;;;;3.22;2.92;;;;;;;19.46;75.45;100440.06;1403763;93;21546;-86
2021/08/03 06:04:24;;;;;;;4.00;3.30;;;;;;;19.64;75.22;100441.61;1406020;93;21537;-85
2021/08/03 06:06:54;;;;;;;5.15;3.70;;;;;;;19.77;74.41;100437.63;1413060;93;21536;-85
2021/08/03 06:09:25;;;;;;;6.65;3.77;;;;;;;19.91;74.06;100442.96;1410820;93;21538;-86
2021/08/03 06:11:53;;;;;;;4.83;2.50;;;;;;;20.03;73.87;100433.25;1403217;93;22521;-85
2021/08/03 06:14:31;;;;;;;3.80;3.02;;;;;;;20.12;73.16;100434.67;1404272;93;21896;-86
2021/08/03 06:17:01;;;;;;;3.40;2.72;;;;;;;20.26;72.83;100437.64;1413748;93;21404;-86
2021/08/03 06:19:28;;;;;;;4.67;2.55;;;;;;;20.35;71.74;100448.16;1411920;93;21655;-86
2021/08/03 06:21:59;;;;;;;3.33;2.62;;;;;;;20.50;71.98;100451.41;1400947;93;22380;-86
2021/08/03 06:24:28;;;;;;;12.95;2.37;;;;;;;20.55;70.12;100457.55;1405763;93;21471;-86
2021/08/03 06:26:56;;;;;;;2.60;2.40;;;;;;;20.58;69.05;100456.59;1412916;93;22023;-86
2021/08/03 06:29:25;;;;;;;4.10;2.50;;;;;;;20.65;69.33;100462.76;1395688;93;21530;-86
2021/08/03 06:31:53;;;;;;;5.20;3.40;;;;;;;20.73;69.40;100454.45;1404484;93;22447;-86
2021/08/03 06:34:21;;;;;;;3.30;2.70;;;;;;;20.82;69.17;100455.03;1411989;93;21544;-86
2021/08/03 06:36:47;;;;;;;4.10;2.75;;;;;;;20.91;69.02;100456.95;1399725;93;21478;-87
2021/08/03 06:39:13;;;;;;;2.95;2.00;;;;;;;20.99;69.37;100455.89;1405013;93;22364;-86
2021/08/03 06:41:40;;;;;;;3.45;2.25;;;;;;;21.09;68.79;100451.70;1410764;93;21434;-86
2021/08/03 06:44:25;;;;;;;4.33;2.30;;;;;;;21.09;66.38;100449.01;1399979;93;22490;-86
2021/08/03 06:46:55;;;;;;;2.60;2.40;;;;;;;21.04;63.32;100443.97;1398347;93;21463;-86
2021/08/03 06:49:22;;;;;;;4.22;1.87;;;;;;;21.17;65.55;100450.08;1399299;93;21449;-86
2021/08/03 06:51:55;;;;;;;3.45;2.62;;;;;;;21.24;65.30;100450.58;1406388;93;21433;-86
2021/08/03 06:54:25;;;;;;;4.47;2.00;;;;;;;21.25;63.85;100457.60;1410906;93;21471;-87
2021/08/03 06:56:56;;;;;;;4.22;2.58;;;;;;;21.34;65.08;100456.29;1400785;93;21478;-86
2021/08/03 06:59:29;;;;;;;4.62;2.25;;;;;;;21.45;64.46;100453.46;1400448;93;21493;-87
2021/08/03 07:02:07;;;;;;;2.77;2.20;;;;;;;21.53;65.06;100455.36;1402928;93;21738;-87
2021/08/03 07:04:54;;;;;;;2.40;2.00;;;;;;;21.63;64.49;100466.45;1400990;93;21493;-87
2021/08/03 07:07:22;;;;;;;3.15;2.52;;;;;;;21.79;64.02;100457.53;1404221;93;22440;-86
2021/08/03 07:09:49;;;;;;;3.50;1.98;;;;;;;21.81;61.69;100455.45;1409714;93;21538;-86
2021/08/03 07:12:16;;;;;;;2.40;1.67;;;;;;;21.90;62.30;100461.39;1404487;93;21522;-86
2021/08/03 07:14:43;;;;;;;4.28;2.17;;;;;;;22.03;62.53;100461.25;1402356;93;22461;-87
2021/08/03 07:17:14;;;;;;;3.92;2.05;;;;;;;22.08;61.47;100452.80;1411249;93;21507;-86
2021/08/03 07:19:41;;;;;;;2.25;2.05;;;;;;;22.25;61.50;100456.30;1406462;93;21440;-87
2021/08/03 07:22:14;;;;;;;2.27;2.08;;;;;;;22.36;61.38;100452.86;1408898;93;21529;-86
2021/08/03 07:24:44;;;;;;;2.25;2.00;;;;;;;22.43;60.30;100453.59;1410856;93;21522;-87
2021/08/03 07:27:12;;;;;;;1.92;1.70;;;;;;;22.46;59.26;100454.48;1410947;93;21589;-87
2021/08/03 07:29:39;;;;;;;2.10;1.90;;;;;;;22.51;59.57;100455.99;1406445;93;22401;-87
2021/08/03 07:32:08;;;;;;;2.45;1.60;;;;;;;22.65;59.86;100460.70;1403949;93;21508;-87
2021/08/03 07:34:38;;;;;;;2.67;2.47;;;;;;;22.69;59.47;100454.33;1402025;93;21521;-87
2021/08/03 07:37:06;;;;;;;3.67;1.70;;;;;;;22.86;59.56;100466.14;1410726;93;21594;-87
2021/08/03 07:39:35;;;;;;;2.05;1.85;;;;;;;22.99;58.82;100455.75;1410156;93;21420;-87
2021/08/03 07:42:01;;;;;;;2.20;1.60;;;;;;;23.08;58.23;100457.06;1402644;93;21520;-87
2021/08/03 07:44:28;;;;;;;1.67;1.50;;;;;;;23.20;57.80;100462.50;1392724;93;21589;-87
2021/08/03 07:46:54;;;;;;;1.67;1.30;;;;;;;23.22;56.74;100467.16;1404292;93;22410;-87
2021/08/03 07:49:20;;;;;;;2.22;2.05;;;;;;;23.33;57.40;100469.06;1405339;93;21849;-86
2021/08/03 07:51:47;;;;;;;4.83;2.10;;;;;;;23.31;57.14;100470.34;1404602;93;21666;-87
2021/08/03 07:54:14;;;;;;;2.15;1.87;;;;;;;23.35;56.81;100468.82;1416083;93;21494;-87
2021/08/03 07:56:40;;;;;;;2.87;1.87;;;;;;;23.42;56.86;100470.38;1398563;93;21754;-87
2021/08/03 07:59:06;;;;;;;3.05;1.80;;;;;;;23.57;57.36;100474.52;1411603;93;21588;-87
2021/08/03 08:01:34;;;;;;;2.08;1.80;;;;;;;23.75;57.45;100476.33;1405705;93;21618;-87
2021/08/03 08:04:00;;;;;;;1.62;1.50;;;;;;;23.86;57.07;100481.74;1409494;93;22094;-87
2021/08/03 08:06:26;;;;;;;1.92;1.72;;;;;;;24.03;56.75;100483.22;1401680;93;22401;-87
2021/08/03 08:08:52;;;;;;;2.67;1.67;;;;;;;24.12;55.89;100479.64;1402918;93;21435;-87
2021/08/03 08:11:18;;;;;;;2.05;1.65;;;;;;;24.25;55.87;100490.19;1414700;93;21513;-87
2021/08/03 08:13:44;;;;;;;2.55;2.00;;;;;;;24.40;55.95;100491.59;1409752;93;21650;-87
2021/08/03 08:16:11;;;;;;;6.22;1.85;;;;;;;24.53;56.11;100480.55;1413383;93;22424;-87
2021/08/03 08:18:37;;;;;;;1.95;1.70;;;;;;;24.69;55.52;100484.41;1405924;93;21678;-87
2021/08/03 08:21:03;;;;;;;4.90;1.70;;;;;;;24.67;53.99;100479.77;1410763;93;21555;-87
2021/08/03 08:23:30;;;;;;;4.85;1.50;;;;;;;24.70;54.23;100473.33;1411559;93;21530;-84
2021/08/03 08:25:58;;;;;;;2.02;1.62;;;;;;;24.81;53.54;100478.42;1411253;93;21376;-84
2021/08/03 08:28:25;;;;;;;1.70;1.60;;;;;;;24.88;53.48;100472.33;1408200;93;21617;-84
2021/08/03 08:30:52;;;;;;;1.98;1.52;;;;;;;25.03;53.37;100470.47;1407365;93;21589;-84
2021/08/03 08:33:18;;;;;;;5.15;1.47;;;;;;;25.17;51.82;100475.88;1405601;93;22904;-84
2021/08/03 08:35:45;;;;;;;1.40;1.30;;;;;;;25.25;52.31;100476.56;1403796;93;21486;-84
2021/08/03 08:38:11;;;;;;;1.82;1.67;;;;;;;24.90;49.63;100473.45;1404714;93;21471;-84
2021/08/03 08:40:38;;;;;;;1.42;1.32;;;;;;;25.14;51.66;100466.07;1405774;93;23266;-84
2021/08/03 08:43:05;;;;;;;2.67;1.87;;;;;;;25.25;51.53;100471.97;1405334;93;21448;-84
2021/08/03 08:45:31;;;;;;;3.20;2.10;;;;;;;25.35;51.73;100468.63;1404790;93;22321;-84
2021/08/03 08:47:58;;;;;;;1.52;1.42;;;;;;;25.44;51.02;100462.55;1407296;93;21397;-84
2021/08/03 08:50:25;;;;;;;5.25;1.70;;;;;;;25.37;51.50;100466.48;1401245;93;21618;-84
2021/08/03 08:52:54;;;;;;;3.30;1.57;;;;;;;25.42;51.54;100464.68;1407061;93;21449;-84
2021/08/03 08:55:22;;;;;;;1.47;1.37;;;;;;;25.50;50.94;100462.11;1408293;93;21464;-84
2021/08/03 08:57:51;;;;;;;3.80;1.60;;;;;;;25.68;51.09;100462.94;1388567;93;21373;-84
2021/08/03 09:00:19;;;;;;;1.47;1.37;;;;;;;25.70;47.91;100462.16;1410869;93;21494;-84
2021/08/03 09:02:49;;;;;;;1.77;1.30;;;;;;;25.86;49.80;100466.77;1419640;93;21403;-84
2021/08/03 09:05:17;;;;;;;1.62;1.52;;;;;;;26.02;49.34;100467.29;1417016;93;21449;-84
2021/08/03 09:07:54;;;;;;;3.10;1.42;;;;;;;26.17;48.89;100456.38;1404593;93;22299;-84
2021/08/03 09:10:40;;;;;;;1.95;1.60;;;;;;;26.26;48.85;100468.43;1405184;93;21735;-84
2021/08/03 09:13:18;;;;;;;1.70;1.60;;;;;;;26.39;48.38;100466.72;1412991;93;21448;-84
2021/08/03 09:15:58;;;;;;;2.02;1.60;;;;;;;26.55;48.30;100465.03;1404430;93;21398;-84
2021/08/03 09:18:40;;;;;;;2.05;1.77;;;;;;;26.57;45.14;100464.80;1416506;93;22263;-84
2021/08/03 09:21:26;;;;;;;3.90;1.50;;;;;;;26.62;44.43;100459.44;1410490;93;21389;-84
2021/08/03 09:23:59;;;;;;;2.90;1.40;;;;;;;26.43;45.30;100463.77;1413556;93;21456;-84
2021/08/03 09:26:46;;;;;;;3.05;1.52;;;;;;;26.57;46.76;100471.04;1406614;93;21447;-84
2021/08/03 09:29:16;;;;;;;2.80;1.60;;;;;;;26.70;47.95;100465.75;1411773;93;21492;-84
2021/08/03 09:31:54;;;;;;;1.55;1.22;;;;;;;26.84;47.25;100473.79;1412944;93;21665;-84
2021/08/03 09:34:21;;;;;;;1.92;1.80;;;;;;;26.95;47.22;100478.80;1404237;93;21433;-85
2021/08/03 09:36:55;;;;;;;3.45;1.92;;;;;;;26.66;46.23;100484.45;1410563;93;21530;-84
2021/08/03 09:39:42;;;;;;;2.52;1.42;;;;;;;26.88;46.89;100486.34;1398355;93;21523;-84
2021/08/03 09:42:13;;;;;;;4.97;1.42;;;;;;;26.82;46.02;100488.18;1402395;93;22423;-84
2021/08/03 09:45:02;;;;;;;1.50;1.40;;;;;;;26.86;47.10;100498.80;1406280;93;21391;-84
2021/08/03 09:47:31;;;;;;;1.75;1.27;;;;;;;26.97;47.38;100500.56;1395702;93;21523;-84
2021/08/03 09:50:01;;;;;;;1.60;1.42;;;;;;;27.17;47.19;100499.18;1409224;93;21515;-84
2021/08/03 09:52:33;;;;;;;2.45;1.65;;;;;;;26.86;45.69;100489.30;1407475;93;21353;-83
2021/08/03 09:55:18;;;;;;;2.20;1.30;;;;;;;27.06;47.59;100494.69;1406428;93;21390;-84
2021/08/03 09:57:47;;;;;;;2.08;1.62;;;;;;;27.26;46.99;100479.16;1406909;93;22663;-84
2021/08/03 10:00:35;;;;;;;2.05;1.30;;;;;;;27.49;47.23;100472.58;1387757;93;22335;-84
2021/08/03 10:03:03;;;;;;;2.12;1.40;;;;;;;27.54;46.58;100459.04;1400374;93;21494;-84
2021/08/03 10:05:30;;;;;;;2.58;1.67;;;;;;;27.78;46.16;100450.78;1414166;93;21287;-85
2021/08/03 10:07:58;;;;;;;2.12;1.42;;;;;;;27.99;45.90;100449.58;1410756;93;21323;-84
2021/08/03 10:10:25;;;;;;;1.45;1.30;;;;;;;27.99;44.46;100435.98;1410518;93;21413;-84
2021/08/03 10:12:51;;;;;;;2.45;1.50;;;;;;;28.11;45.14;100431.17;1405026;93;21600;-83
2021/08/03 10:15:17;;;;;;;2.95;1.60;;;;;;;28.31;44.68;100418.19;1403512;93;21411;-83
2021/08/03 10:17:43;;;;;;;2.02;1.35;;;;;;;28.47;44.11;100417.75;1403630;93;21523;-84
2021/08/03 10:20:14;;;;;;;3.10;1.42;;;;;;;28.59;43.84;100410.70;1403484;93;21397;-84
2021/08/03 10:22:54;;;;;;;3.35;1.87;;;;;;;28.60;43.03;100406.37;1409852;93;22421;-85
2021/08/03 10:25:22;;;;;;;1.55;1.45;;;;;;;28.55;42.96;100407.16;1408867;93;22493;-82
2021/08/03 10:27:53;;;;;;;3.98;1.77;;;;;;;28.65;42.82;100409.09;1406966;93;21404;-82
2021/08/03 10:30:35;;;;;;;2.15;1.47;;;;;;;28.70;42.33;100407.74;1408435;93;21427;-82
2021/08/03 10:33:10;;;;;;;4.90;1.45;;;;;;;28.74;42.90;100408.86;1407949;93;21589;-82
2021/08/03 10:35:47;;;;;;;1.45;1.12;;;;;;;28.70;42.50;100403.66;1411711;93;21567;-82
2021/08/03 10:38:20;;;;;;;4.25;1.30;;;;;;;28.85;42.66;100394.70;1406614;93;21464;-82
2021/08/03 10:40:56;;;;;;;1.72;1.40;;;;;;;28.76;42.30;100399.05;1409230;93;21345;-83
2021/08/03 10:43:37;;;;;;;9.43;2.02;;;;;;;28.44;42.27;100393.23;1405604;93;21383;-84
2021/08/03 10:46:12;;;;;;;3.62;1.60;;;;;;;28.17;42.95;100396.11;1405109;93;21809;-84
2021/08/03 10:48:45;;;;;;;4.08;1.32;;;;;;;27.88;42.86;100391.06;1402716;93;21419;-84
2021/08/03 10:51:23;;;;;;;1.92;1.47;;;;;;;27.73;42.04;100393.64;1401775;92;22554;-84
2021/08/03 10:54:08;;;;;;;4.22;2.00;;;;;;;27.23;42.10;100389.48;1409839;93;21440;-84
2021/08/03 10:56:58;;;;;;;1.77;1.40;;;;;;;27.19;43.12;100385.11;1402437;93;21338;-84
2021/08/03 10:59:35;;;;;;;2.55;1.67;;;;;;;27.50;44.53;100385.87;1401132;93;21625;-84
2021/08/03 11:02:04;;;;;;;5.80;1.55;;;;;;;27.91;44.41;100384.28;1403275;93;21603;-84
2021/08/03 11:04:54;;;;;;;3.40;1.60;;;;;;;28.33;43.80;100385.55;1402565;93;22298;-85
2021/08/03 11:07:31;;;;;;;4.47;1.75;;;;;;;28.51;42.76;100387.53;1406282;93;21412;-83
2021/08/03 11:10:20;;;;;;;1.47;1.37;;;;;;;28.38;41.50;100385.30;1412956;93;21279;-81
2021/08/03 11:12:52;;;;;;;2.33;1.42;;;;;;;28.42;41.60;100382.34;1399223;93;21486;-82
2021/08/03 11:15:33;;;;;;;4.15;1.45;;;;;;;28.45;41.59;100384.53;1407168;93;21457;-82
2021/08/03 11:18:10;;;;;;;2.85;1.40;;;;;;;28.68;42.14;100380.50;1401192;93;22479;-84
2021/08/03 11:20:45;;;;;;;4.22;1.75;;;;;;;28.98;41.46;100372.94;1406189;93;22460;-84
2021/08/03 11:23:17;;;;;;;3.67;1.55;;;;;;;29.17;40.77;100364.51;1410684;93;21382;-84
2021/08/03 11:25:47;;;;;;;2.08;1.30;;;;;;;29.41;39.59;100362.61;1412277;93;21597;-84
2021/08/03 11:28:21;;;;;;;5.37;1.30;;;;;;;29.48;38.46;100354.95;1415237;93;23370;-84
2021/08/03 11:30:51;;;;;;;1.72;1.30;;;;;;;29.48;36.68;100355.50;1406505;93;21626;-82
2021/08/03 11:33:20;;;;;;;7.40;2.00;;;;;;;29.67;38.39;100350.59;1405898;93;21383;-84
2021/08/03 11:35:47;;;;;;;3.30;1.25;;;;;;;29.81;37.06;100341.84;1410761;93;21323;-84
2021/08/03 11:38:17;;;;;;;5.15;1.77;;;;;;;29.81;37.06;100341.84;1412154;93;21464;-84